createdAt,value
2023-02-05T00:03:49.470Z,10.57
2023-02-05T00:13:50.683Z,11.00
2023-02-05T00:23:51.941Z,11.73
2023-02-05T00:33:53.137Z,10.77
2023-02-05T00:43:54.364Z,11.32
2023-02-05T00:53:55.681Z,11.38
2023-02-05T01:03:57.038Z,11.38
2023-02-05T01:13:58.328Z,11.38
2023-02-05T01:24:01.551Z,12.02
2023-02-05T01:34:02.755Z,12.10
2023-02-05T01:44:04.030Z,18.13
2023-02-05T01:54:05.231Z,12.60
2023-02-05T02:04:06.428Z,13.52
2023-02-05T02:14:07.686Z,10.18
2023-02-05T02:24:08.909Z,9.63
2023-02-05T02:34:10.133Z,10.48
2023-02-05T02:44:11.364Z,10.10
2023-02-05T02:54:12.592Z,11.05
2023-02-05T03:04:14.095Z,10.40
2023-02-05T03:14:15.299Z,10.32
2023-02-05T03:24:16.537Z,10.60
2023-02-05T03:34:17.768Z,10.15
2023-02-05T03:44:19.052Z,10.88
2023-02-05T03:54:20.276Z,10.07
2023-02-05T04:04:21.502Z,9.98
2023-02-05T04:14:22.728Z,9.93
2023-02-05T04:24:25.165Z,10.07
2023-02-05T04:34:26.388Z,9.65
2023-02-05T04:44:27.624Z,9.98
2023-02-05T04:54:28.936Z,9.23
2023-02-05T05:04:30.150Z,10.43
2023-02-05T05:14:31.385Z,9.30
2023-02-05T05:24:32.616Z,9.38
2023-02-05T05:34:33.873Z,10.52
2023-02-05T05:44:35.096Z,10.63
2023-02-05T05:54:36.299Z,11.02
2023-02-05T06:04:37.491Z,11.75
2023-02-05T06:14:38.729Z,13.27
2023-02-05T06:24:40.232Z,12.65
2023-02-05T06:34:41.466Z,14.27
2023-02-05T06:44:42.701Z,13.23
2023-02-05T06:54:44.666Z,13.93
2023-02-05T07:04:45.882Z,13.50
2023-02-05T07:14:47.148Z,12.38
2023-02-05T07:24:48.347Z,13.23
2023-02-05T07:34:49.528Z,13.98
2023-02-05T07:44:50.754Z,12.35
2023-02-05T07:54:52.015Z,13.75
2023-02-05T08:04:53.261Z,13.82
2023-02-05T08:14:54.890Z,15.23
2023-02-05T08:24:56.132Z,14.80
2023-02-05T08:34:58.748Z,15.88
2023-02-05T08:45:00.829Z,15.35
2023-02-05T08:55:02.046Z,14.95
2023-02-05T09:05:08.791Z,15.00
2023-02-05T09:15:10.777Z,15.55
2023-02-05T09:25:12.128Z,14.18
2023-02-05T09:35:13.351Z,16.55
2023-02-05T09:45:14.585Z,13.85
2023-02-05T10:27:27.962Z,14.68
2023-02-05T10:37:29.231Z,14.15
2023-02-05T10:47:30.527Z,12.25
2023-02-05T10:57:31.794Z,17.38
2023-02-05T11:07:33.129Z,14.85
2023-02-05T11:17:34.542Z,15.00
2023-02-05T11:27:35.853Z,16.85
2023-02-05T11:37:37.158Z,16.80
2023-02-05T11:47:38.424Z,16.48
2023-02-05T11:57:41.745Z,16.75
2023-02-05T12:07:43.065Z,16.80
2023-02-05T12:17:45.395Z,17.55
2023-02-05T12:48:40.252Z,17.70
2023-02-05T12:58:41.542Z,18.75
2023-02-05T13:08:42.807Z,17.42
2023-02-05T14:00:25.775Z,17.63
2023-02-05T14:10:27.096Z,18.85
2023-02-05T14:20:28.345Z,18.80
2023-02-05T14:30:37.559Z,19.67
2023-02-05T14:40:38.896Z,19.23
2023-02-05T14:50:40.221Z,18.02
2023-02-05T15:00:44.613Z,18.58
2023-02-05T15:10:45.950Z,20.10
2023-02-05T15:20:47.411Z,21.92
2023-02-05T15:30:48.782Z,20.05
2023-02-05T15:40:50.133Z,21.75
2023-02-05T15:50:58.615Z,18.70
2023-02-05T16:00:59.901Z,21.05
2023-02-05T16:11:05.973Z,23.75
2023-02-05T16:21:07.282Z,22.25
2023-02-05T16:31:08.721Z,21.58
2023-02-05T16:41:10.026Z,32.88
2023-02-05T16:51:11.453Z,41.60
2023-02-05T17:01:12.779Z,26.88
2023-02-05T17:11:14.082Z,22.35
2023-02-05T17:21:15.339Z,20.88
2023-02-05T17:31:17.851Z,28.67
2023-02-05T17:41:37.704Z,24.40
2023-02-05T17:51:41.721Z,26.08
2023-02-05T18:01:43.451Z,27.47
2023-02-05T18:11:44.742Z,19.52
2023-02-05T18:21:47.219Z,17.70
2023-02-05T18:31:48.501Z,18.73
2023-02-05T18:41:49.881Z,18.88
2023-02-05T18:51:51.196Z,21.63
2023-02-05T19:01:54.609Z,18.00
2023-02-05T19:11:56.757Z,20.85
2023-02-05T19:22:02.804Z,20.35
2023-02-05T19:32:05.978Z,18.60
2023-02-05T19:42:08.263Z,18.67
2023-02-05T19:52:09.637Z,20.75
2023-02-05T20:02:10.874Z,19.35
2023-02-05T20:12:13.087Z,18.55
2023-02-05T20:22:14.456Z,16.60
2023-02-05T20:32:15.702Z,18.98
2023-02-05T20:42:17.036Z,17.13
2023-02-05T20:52:18.332Z,20.15
2023-02-05T21:02:20.969Z,15.02
2023-02-05T21:12:27.842Z,14.82
2023-02-05T21:22:29.200Z,15.18
2023-02-05T21:32:30.659Z,14.60
2023-02-05T21:42:31.974Z,14.98
2023-02-05T21:52:33.398Z,12.98
2023-02-05T22:02:34.673Z,12.60
2023-02-05T22:12:35.937Z,15.13
2023-02-05T22:22:37.180Z,13.35
2023-02-05T22:32:38.490Z,11.88
2023-02-05T22:42:39.812Z,12.23
2023-02-05T22:52:41.063Z,14.45
2023-02-05T23:02:42.325Z,14.18
2023-02-05T23:12:43.576Z,14.93
2023-02-05T23:22:44.856Z,16.05
2023-02-05T23:32:46.186Z,16.77
2023-02-05T23:42:47.437Z,14.95
2023-02-05T23:52:48.794Z,14.05
